Time;durP1;ratioP1;P1;durP2;ratioP2;P2;SDS_P1;SDS_P2;PMS_P1;PMS_P2;Temp;Humidity;BMP_temperature;BMP_pressure;BME280_temperature;BME280_humidity;BME280_pressure;Samples;Min_cycle;Max_cycle;Signal;HPM_P1;HPM_P2
2022/01/12 00:01:50;;;;;;;12.07;8.87;;;;;;;-3.22;100.00;98778.19;5017486;28;20585;-56
2022/01/12 00:04:18;;;;;;;11.93;8.80;;;;;;;-3.32;100.00;98772.50;5017977;28;20504;-55
2022/01/12 00:06:47;;;;;;;9.77;8.77;;;;;;;-3.28;100.00;98775.84;5014636;28;20542;-55
2022/01/12 00:09:15;;;;;;;12.50;8.33;;;;;;;-3.25;100.00;98771.38;5013294;28;20550;-55
2022/01/12 00:11:45;;;;;;;11.23;9.57;;;;;;;-3.41;100.00;98765.94;5018114;28;21004;-58
2022/01/12 00:14:13;;;;;;;10.97;9.13;;;;;;;-3.54;100.00;98765.53;5016712;28;20525;-55
2022/01/12 00:16:46;;;;;;;12.67;9.20;;;;;;;-3.40;100.00;98767.63;5015072;28;20486;-49
2022/01/12 00:19:15;;;;;;;10.33;9.30;;;;;;;-3.36;100.00;98766.59;5013982;28;20456;-57
2022/01/12 00:21:43;;;;;;;12.10;10.37;;;;;;;-3.32;100.00;98769.91;5015455;28;20492;-58
2022/01/12 00:24:11;;;;;;;13.70;10.77;;;;;;;-3.40;100.00;98769.34;5013395;28;20515;-57
2022/01/12 00:33:07;;;;;;;12.33;10.30;;;;;;;-3.38;100.00;98757.19;5019343;28;20467;-59
2022/01/12 00:35:00;;;;;;;11.90;9.67;;;;;;;-3.79;100.00;98765.56;5017115;28;20506;-55
2022/01/12 00:37:28;;;;;;;15.23;11.13;;;;;;;-3.45;100.00;98758.31;5013719;28;20502;-55
2022/01/12 00:39:58;;;;;;;12.13;10.10;;;;;;;-3.64;100.00;98758.97;5017483;28;20483;-55
2022/01/12 00:42:28;;;;;;;14.57;10.17;;;;;;;-3.62;100.00;98764.94;5017017;28;20515;-56
2022/01/12 00:45:01;;;;;;;12.57;9.20;;;;;;;-3.54;100.00;98755.16;5015690;28;20570;-54
2022/01/12 00:47:29;;;;;;;11.33;9.40;;;;;;;-3.51;100.00;98751.59;5016079;28;20482;-57
2022/01/12 00:49:57;;;;;;;12.17;9.50;;;;;;;-3.75;100.00;98761.13;5017668;28;20455;-59
2022/01/12 00:52:25;;;;;;;11.90;10.17;;;;;;;-3.72;100.00;98756.69;5017439;28;20834;-57
2022/01/12 00:54:53;;;;;;;13.73;9.97;;;;;;;-3.78;100.00;98757.75;5013428;28;20555;-58
2022/01/12 00:57:22;;;;;;;11.20;9.00;;;;;;;-3.63;100.00;98766.72;5017686;28;20535;-55
2022/01/12 00:59:50;;;;;;;11.53;9.40;;;;;;;-3.51;100.00;98761.97;5015537;28;20460;-54
2022/01/12 01:02:19;;;;;;;12.17;9.53;;;;;;;-3.41;100.00;98765.94;5014165;28;20488;-58
2022/01/12 01:04:47;;;;;;;9.50;8.47;;;;;;;-3.29;100.00;98761.19;5014395;28;21256;-58
2022/01/12 01:07:17;;;;;;;12.40;9.33;;;;;;;-3.45;100.00;98763.50;5013737;28;20463;-54
2022/01/12 01:09:54;;;;;;;9.33;8.40;;;;;;;-3.72;100.00;98768.78;5013677;28;20450;-52
2022/01/12 01:12:23;;;;;;;12.97;9.80;;;;;;;-3.80;100.00;98771.63;5015175;28;20542;-58
2022/01/12 01:15:02;;;;;;;9.93;8.60;;;;;;;-3.61;100.00;98782.19;5013176;28;20557;-57
2022/01/12 01:25:51;;;;;;;14.90;9.40;;;;;;;-3.33;100.00;98798.50;5014341;28;20479;-56
2022/01/12 01:28:19;;;;;;;11.90;9.23;;;;;;;-3.44;100.00;98799.72;5012307;28;21014;-59
2022/01/12 01:30:48;;;;;;;11.37;8.53;;;;;;;-3.51;100.00;98806.03;5015588;28;21058;-57
2022/01/12 01:33:21;;;;;;;11.53;8.60;;;;;;;-3.56;100.00;98805.34;4994451;28;20467;-60
2022/01/12 01:35:55;;;;;;;13.67;9.73;;;;;;;-3.58;100.00;98800.25;5014464;28;20455;-57
2022/01/12 01:38:23;;;;;;;10.20;8.33;;;;;;;-3.63;100.00;98810.75;5016416;28;20451;-57
2022/01/12 01:40:51;;;;;;;9.77;8.77;;;;;;;-3.57;100.00;98806.25;5015297;28;21064;-57
2022/01/12 01:43:26;;;;;;;10.17;8.70;;;;;;;-3.54;100.00;98807.00;5013447;28;20514;-55
2022/01/12 01:54:13;;;;;;;12.73;9.20;;;;;;;-3.63;100.00;98797.81;5014038;28;21314;-55
2022/01/12 01:56:41;;;;;;;10.70;7.80;;;;;;;-3.57;100.00;98801.94;5016389;28;20455;-53
2022/01/12 01:59:09;;;;;;;11.53;9.70;;;;;;;-3.66;100.00;98807.41;5020183;28;20455;-52
2022/01/12 02:01:37;;;;;;;9.90;8.90;;;;;;;-3.52;100.00;98806.94;5017020;28;20975;-57
2022/01/12 02:04:06;;;;;;;12.47;9.50;;;;;;;-3.50;100.00;98803.41;5020556;28;20483;-52
2022/01/12 02:06:34;;;;;;;12.60;9.30;;;;;;;-3.73;100.00;98804.22;5023810;28;20480;-54
2022/01/12 02:09:02;;;;;;;10.37;9.30;;;;;;;-3.68;100.00;98810.06;5020770;28;20462;-56
2022/01/12 02:11:31;;;;;;;11.27;10.00;;;;;;;-3.87;100.00;98807.28;5016901;28;21244;-56
2022/01/12 02:13:59;;;;;;;9.97;8.97;;;;;;;-3.85;100.00;98812.41;5017107;28;20474;-58
2022/01/12 02:16:33;;;;;;;11.20;9.50;;;;;;;-3.60;100.00;98814.13;5021060;28;20458;-57
2022/01/12 02:19:15;;;;;;;12.63;9.17;;;;;;;-3.85;100.00;98812.41;5014335;28;20460;-54
2022/01/12 02:35:49;;;;;;;13.33;8.97;;;;;;;-3.69;100.00;98823.94;4942817;28;20462;-56
2022/01/12 02:41:06;;;;;;;10.57;9.47;;;;;;;-3.95;100.00;98817.91;4944313;28;20463;-56
2022/01/12 02:50:37;;;;;;;13.70;10.10;;;;;;;-4.03;100.00;98812.13;4947099;28;20487;-58
2022/01/12 02:54:53;;;;;;;11.97;9.47;;;;;;;-4.18;100.00;98823.84;4892622;29;20499;-59
2022/01/12 02:57:22;;;;;;;11.37;8.70;;;;;;;-4.15;100.00;98818.56;4892808;29;20460;-52
2022/01/12 03:00:03;;;;;;;11.87;9.77;;;;;;;-4.03;100.00;98829.41;4891496;29;21356;-54
2022/01/12 03:02:34;;;;;;;13.63;9.63;;;;;;;-3.92;100.00;98827.31;4890185;29;20886;-57
2022/01/12 03:05:22;;;;;;;11.73;9.63;;;;;;;-4.09;100.00;98830.47;4890439;29;20491;-53
2022/01/12 03:07:52;;;;;;;11.00;9.90;;;;;;;-3.83;100.00;98823.53;4951331;28;20977;-57
2022/01/12 03:10:21;;;;;;;11.90;9.17;;;;;;;-3.76;100.00;98817.28;4960536;28;20457;-58
2022/01/12 03:12:49;;;;;;;15.07;10.10;;;;;;;-4.06;100.00;98820.00;4960085;28;20496;-55
2022/01/12 03:15:18;;;;;;;12.50;10.70;;;;;;;-4.10;100.00;98821.84;4960400;28;20473;-55
2022/01/12 03:17:46;;;;;;;12.17;9.70;;;;;;;-4.09;100.00;98820.13;4960247;28;21348;-56
2022/01/12 03:20:14;;;;;;;11.37;8.97;;;;;;;-4.31;100.00;98822.56;4959699;28;20538;-52
2022/01/12 03:22:42;;;;;;;11.43;9.60;;;;;;;-4.45;100.00;98826.44;4959234;28;20465;-59
2022/01/12 03:25:11;;;;;;;10.73;8.43;;;;;;;-4.53;100.00;98831.00;4959639;28;20477;-57
2022/01/12 03:27:40;;;;;;;12.10;9.70;;;;;;;-4.54;100.00;98824.16;4958833;28;20465;-57
2022/01/12 03:30:09;;;;;;;11.27;9.03;;;;;;;-4.47;100.00;98823.06;4958081;28;20457;-58
2022/01/12 03:32:43;;;;;;;13.57;9.10;;;;;;;-4.36;100.00;98830.47;5010799;28;20956;-58
2022/01/12 03:35:23;;;;;;;11.13;9.97;;;;;;;-4.40;100.00;98827.13;5018907;28;20482;-56
2022/01/12 03:38:19;;;;;;;11.57;9.37;;;;;;;-4.43;100.00;98824.66;5015152;28;20460;-55
2022/01/12 03:40:42;;;;;;;12.53;9.53;;;;;;;-4.30;100.00;98821.69;5019382;28;20466;-56
2022/01/12 03:43:12;;;;;;;11.17;9.33;;;;;;;-4.06;100.00;98822.59;5017121;28;20493;-50
2022/01/12 03:45:40;;;;;;;12.37;10.13;;;;;;;-4.10;100.00;98816.66;5017116;28;20539;-55
2022/01/12 03:48:08;;;;;;;9.63;8.13;;;;;;;-4.04;100.00;98815.63;5020090;28;20465;-55
2022/01/12 03:50:36;;;;;;;12.63;8.97;;;;;;;-4.30;100.00;98822.50;5017184;28;20470;-51
2022/01/12 03:53:04;;;;;;;10.27;9.07;;;;;;;-4.05;100.00;98831.19;5014316;28;21264;-53
2022/01/12 03:55:33;;;;;;;11.87;9.57;;;;;;;-3.97;100.00;98827.47;5016198;28;20462;-56
2022/01/12 03:58:01;;;;;;;12.13;9.70;;;;;;;-4.07;100.00;98829.50;5017783;28;20490;-59
2022/01/12 04:00:30;;;;;;;11.90;8.90;;;;;;;-4.12;100.00;98828.00;5013313;28;21093;-58
2022/01/12 04:03:00;;;;;;;10.73;8.90;;;;;;;-4.01;100.00;98832.78;5012733;28;20521;-53
2022/01/12 04:08:18;;;;;;;13.30;9.20;;;;;;;-3.95;100.00;98830.00;5017093;28;20475;-54
2022/01/12 04:08:21;;;;;;;10.73;9.23;;;;;;;-3.89;100.00;98827.22;5016670;28;20487;-58
2022/01/12 04:10:49;;;;;;;12.87;9.70;;;;;;;-4.09;100.00;98833.06;5020506;28;20975;-58
2022/01/12 04:13:18;;;;;;;12.73;9.77;;;;;;;-4.19;100.00;98832.50;5011371;28;21250;-55
2022/01/12 04:15:49;;;;;;;13.30;9.77;;;;;;;-4.17;100.00;98830.72;5021656;28;21178;-57
2022/01/12 04:18:18;;;;;;;10.60;9.03;;;;;;;-4.22;100.00;98830.84;5019279;28;20459;-54
2022/01/12 04:20:47;;;;;;;10.60;9.07;;;;;;;-4.34;100.00;98835.63;5016782;28;21124;-59
2022/01/12 04:23:19;;;;;;;12.17;9.03;;;;;;;-4.26;100.00;98842.22;5014000;28;20808;-55
2022/01/12 04:25:49;;;;;;;12.13;9.23;;;;;;;-4.31;100.00;98838.09;5014872;28;20452;-60
2022/01/12 04:28:18;;;;;;;14.40;9.97;;;;;;;-4.33;100.00;98820.03;5015932;28;20463;-58
2022/01/12 04:30:48;;;;;;;14.13;9.50;;;;;;;-4.24;100.00;98837.00;5014748;28;20464;-56
2022/01/12 04:33:17;;;;;;;14.17;9.53;;;;;;;-4.39;100.00;98836.59;5013403;28;21592;-55
2022/01/12 04:35:47;;;;;;;15.97;10.17;;;;;;;-4.32;100.00;98837.25;5018863;28;20462;-56
2022/01/12 04:38:16;;;;;;;13.17;8.87;;;;;;;-4.21;100.00;98837.72;5015167;28;20463;-55
2022/01/12 04:40:45;;;;;;;10.00;9.00;;;;;;;-4.23;100.00;98849.88;5010988;28;20462;-56
2022/01/12 04:43:14;;;;;;;11.77;9.47;;;;;;;-4.22;100.00;98848.16;5017304;28;20463;-55
2022/01/12 04:45:58;;;;;;;11.53;9.73;;;;;;;-4.23;100.00;98851.63;5012020;28;20485;-54
2022/01/12 04:48:38;;;;;;;12.93;9.73;;;;;;;-4.26;100.00;98849.16;5013938;28;20457;-58
2022/01/12 04:51:05;;;;;;;11.57;8.87;;;;;;;-4.38;100.00;98856.38;5016557;28;20463;-56
2022/01/12 04:53:33;;;;;;;14.10;9.10;;;;;;;-4.48;100.00;98864.50;5015409;28;20482;-52
2022/01/12 04:56:03;;;;;;;12.20;10.40;;;;;;;-4.45;100.00;98859.25;5019979;28;20489;-57
2022/01/12 04:58:31;;;;;;;11.33;9.73;;;;;;;-4.31;100.00;98851.88;5012493;28;20471;-58
2022/01/12 05:01:06;;;;;;;13.03;9.47;;;;;;;-4.37;100.00;98860.66;5013575;28;21030;-56
2022/01/12 05:06:41;;;;;;;11.60;8.87;;;;;;;-4.78;100.00;98857.63;5010929;28;20843;-56
2022/01/12 05:14:41;;;;;;;11.67;9.30;;;;;;;-4.81;100.00;98858.59;5014338;28;20475;-56
2022/01/12 05:17:09;;;;;;;13.13;11.40;;;;;;;-4.86;100.00;98865.63;5015619;28;20469;-57
2022/01/12 05:19:39;;;;;;;18.57;14.13;;;;;;;-5.01;100.00;98868.66;5013249;28;20456;-56
2022/01/12 05:22:07;;;;;;;16.33;12.63;;;;;;;-4.92;100.00;98872.72;5011549;28;20526;-59
2022/01/12 05:24:35;;;;;;;14.83;9.77;;;;;;;-4.67;100.00;98876.28;5016455;28;20483;-56
2022/01/12 05:27:23;;;;;;;11.43;8.90;;;;;;;-4.78;100.00;98880.06;5009776;28;20474;-54
2022/01/12 05:29:51;;;;;;;13.73;9.30;;;;;;;-4.89;100.00;98886.41;5013187;28;20888;-55
2022/01/12 05:32:19;;;;;;;12.37;8.63;;;;;;;-4.71;100.00;98885.03;5010311;28;20459;-60
2022/01/12 05:34:48;;;;;;;12.63;10.60;;;;;;;-4.84;100.00;98884.53;5011241;28;20485;-58
2022/01/12 05:37:16;;;;;;;12.50;9.97;;;;;;;-4.75;100.00;98883.41;5015316;28;20455;-56
2022/01/12 05:39:44;;;;;;;11.13;9.80;;;;;;;-4.74;100.00;98879.91;5017125;28;20533;-56
2022/01/12 05:42:26;;;;;;;14.87;10.50;;;;;;;-4.49;100.00;98888.69;5013200;28;20560;-54
2022/01/12 05:44:54;;;;;;;14.63;9.97;;;;;;;-4.80;100.00;98885.28;5018134;28;20487;-56
2022/01/12 05:47:36;;;;;;;13.93;9.77;;;;;;;-4.75;100.00;98893.75;5013433;28;20479;-57
2022/01/12 05:50:05;;;;;;;11.57;9.43;;;;;;;-4.38;100.00;98890.03;5006141;28;20463;-56
2022/01/12 05:52:33;;;;;;;14.30;10.67;;;;;;;-4.39;100.00;98892.69;5015651;28;20470;-54
2022/01/12 05:55:03;;;;;;;11.10;8.60;;;;;;;-4.52;100.00;98894.81;5013971;28;20485;-55
2022/01/12 05:57:32;;;;;;;10.73;9.03;;;;;;;-4.73;100.00;98899.75;5014941;28;20454;-58
2022/01/12 06:00:00;;;;;;;10.23;8.73;;;;;;;-4.78;100.00;98899.00;5012538;28;20466;-59
2022/01/12 06:02:28;;;;;;;13.23;9.47;;;;;;;-4.84;100.00;98901.78;5015602;28;20469;-57
2022/01/12 06:04:56;;;;;;;16.13;13.27;;;;;;;-4.83;100.00;98904.34;5012327;28;20454;-59
2022/01/12 06:07:26;;;;;;;13.43;10.17;;;;;;;-4.96;100.00;98906.41;5010728;28;20208;-55
2022/01/12 06:09:54;;;;;;;14.37;10.40;;;;;;;-4.73;100.00;98912.69;5016418;28;20454;-58
2022/01/12 06:12:22;;;;;;;11.17;9.00;;;;;;;-4.62;100.00;98911.50;5015981;28;20465;-60
2022/01/12 06:14:50;;;;;;;10.57;8.87;;;;;;;-4.81;100.00;98909.44;5012660;28;20569;-58
2022/01/12 06:17:19;;;;;;;14.20;9.77;;;;;;;-4.68;100.00;98910.78;5017389;28;20856;-59
2022/01/12 06:19:47;;;;;;;10.57;9.47;;;;;;;-4.71;100.00;98913.47;5010412;28;20469;-60
2022/01/12 06:22:15;;;;;;;11.97;9.03;;;;;;;-4.83;100.00;98921.56;5015382;28;20465;-61
2022/01/12 06:24:44;;;;;;;13.47;9.67;;;;;;;-4.88;100.00;98911.38;5016630;28;20517;-59
2022/01/12 06:27:15;;;;;;;14.97;10.33;;;;;;;-4.70;100.00;98906.56;5012629;28;20542;-59
2022/01/12 06:29:49;;;;;;;10.83;8.97;;;;;;;-4.66;100.00;98921.94;5015370;28;20456;-55
2022/01/12 06:32:18;;;;;;;11.70;10.17;;;;;;;-4.74;100.00;98929.06;5017968;28;20462;-59
2022/01/12 06:34:46;;;;;;;15.10;11.10;;;;;;;-4.64;100.00;98942.56;5016859;28;20471;-56
2022/01/12 06:37:14;;;;;;;14.07;10.93;;;;;;;-4.61;100.00;98947.66;5013510;28;20463;-56
2022/01/12 06:39:44;;;;;;;15.00;10.80;;;;;;;-4.89;100.00;98955.38;5013102;28;20695;-56
2022/01/12 06:42:12;;;;;;;13.07;11.23;;;;;;;-5.14;100.00;98954.31;5012521;28;20880;-59
2022/01/12 06:44:40;;;;;;;12.77;10.13;;;;;;;-5.07;100.00;98952.41;5013586;28;20478;-56
2022/01/12 06:47:08;;;;;;;14.70;10.27;;;;;;;-4.74;100.00;98959.25;5013636;28;20455;-55
2022/01/12 06:49:36;;;;;;;11.93;10.37;;;;;;;-5.01;100.00;98953.97;5019575;28;20455;-50
2022/01/12 06:52:05;;;;;;;13.47;10.03;;;;;;;-4.79;100.00;98954.22;5010730;28;20455;-58
2022/01/12 06:54:33;;;;;;;12.10;9.73;;;;;;;-4.73;100.00;98960.97;5020614;28;20481;-53
2022/01/12 06:57:02;;;;;;;14.13;9.97;;;;;;;-4.88;100.00;98962.25;5016194;28;20463;-50
2022/01/12 06:59:31;;;;;;;14.57;10.23;;;;;;;-4.82;100.00;98967.22;5019025;28;20458;-52
2022/01/12 07:01:59;;;;;;;14.03;11.27;;;;;;;-4.84;100.00;98963.84;5017812;28;20534;-60
2022/01/12 07:04:27;;;;;;;18.20;11.97;;;;;;;-4.95;100.00;98972.75;5016656;28;20483;-56
2022/01/12 07:06:57;;;;;;;12.97;10.63;;;;;;;-4.94;100.00;98971.00;5017883;28;21015;-59
2022/01/12 07:09:25;;;;;;;15.20;11.30;;;;;;;-5.00;100.00;98973.75;5015168;28;20447;-57
2022/01/12 07:11:53;;;;;;;11.57;10.37;;;;;;;-4.61;100.00;98970.09;5018362;28;20466;-60
2022/01/12 07:14:23;;;;;;;12.03;9.83;;;;;;;-4.66;100.00;98973.69;5012342;28;21447;-59
2022/01/12 07:16:51;;;;;;;12.37;10.47;;;;;;;-4.58;100.00;98962.25;5021333;28;20532;-58
2022/01/12 07:19:19;;;;;;;11.83;9.93;;;;;;;-4.60;100.00;98962.28;5017885;28;20526;-57
2022/01/12 07:21:48;;;;;;;13.57;10.37;;;;;;;-4.64;100.00;98963.28;5013762;28;20457;-60
2022/01/12 07:24:16;;;;;;;12.43;10.03;;;;;;;-4.51;100.00;98963.75;5014663;28;20493;-59
2022/01/12 07:26:46;;;;;;;12.77;10.37;;;;;;;-4.37;100.00;98971.13;5019246;28;20483;-58
2022/01/12 07:29:14;;;;;;;12.03;10.23;;;;;;;-4.49;100.00;98987.84;5014501;28;20518;-58
2022/01/12 07:31:45;;;;;;;10.03;8.77;;;;;;;-4.65;100.00;98984.84;5015685;28;21279;-56
2022/01/12 07:34:14;;;;;;;11.60;9.67;;;;;;;-4.59;100.00;98984.69;5012335;28;20537;-57
2022/01/12 07:36:43;;;;;;;12.67;10.03;;;;;;;-4.61;100.00;98975.28;5016133;28;20573;-58
2022/01/12 07:39:11;;;;;;;11.17;9.97;;;;;;;-4.76;100.00;98998.09;5017210;28;20473;-56
2022/01/12 07:41:39;;;;;;;10.20;8.63;;;;;;;-4.78;100.00;98999.88;5012061;28;20958;-59
2022/01/12 07:44:07;;;;;;;11.50;8.63;;;;;;;-4.70;100.00;98997.94;5015370;28;20513;-61
2022/01/12 07:46:35;;;;;;;10.07;9.07;;;;;;;-4.75;100.00;99002.38;5018484;28;21081;-57
2022/01/12 07:49:06;;;;;;;12.17;9.23;;;;;;;-4.54;100.00;99013.00;5015345;28;20447;-60
2022/01/12 07:51:35;;;;;;;10.33;8.37;;;;;;;-4.52;100.00;99019.00;5015138;28;20459;-58
2022/01/12 07:54:03;;;;;;;9.27;8.33;;;;;;;-4.33;100.00;99018.47;5012290;28;20585;-58
2022/01/12 07:56:31;;;;;;;10.13;8.00;;;;;;;-4.44;100.00;99026.53;5014124;28;20451;-59
2022/01/12 07:58:59;;;;;;;12.77;9.87;;;;;;;-4.61;100.00;99006.31;5015420;28;20538;-58
2022/01/12 08:01:27;;;;;;;11.30;9.13;;;;;;;-4.47;100.00;99016.28;5017369;28;20456;-57
2022/01/12 08:03:55;;;;;;;10.50;9.40;;;;;;;-4.25;100.00;99024.28;5016661;28;20471;-58
2022/01/12 08:06:24;;;;;;;11.97;10.13;;;;;;;-4.34;100.00;99027.13;5017319;28;20482;-56
2022/01/12 08:08:52;;;;;;;12.97;10.37;;;;;;;-4.52;100.00;99030.22;5013039;28;20458;-58
2022/01/12 08:11:20;;;;;;;13.37;10.20;;;;;;;-4.53;100.00;99028.50;5016941;28;21004;-58
2022/01/12 08:13:49;;;;;;;13.07;11.33;;;;;;;-4.02;100.00;99046.03;5014200;28;21126;-58
2022/01/12 08:16:17;;;;;;;9.67;8.70;;;;;;;-4.33;100.00;99044.34;5018347;28;20460;-58
2022/01/12 08:18:45;;;;;;;11.97;10.37;;;;;;;-4.23;100.00;99050.97;5014409;28;20455;-57
2022/01/12 08:21:13;;;;;;;13.67;10.60;;;;;;;-3.96;100.00;99040.69;5013305;28;20467;-59
2022/01/12 08:23:43;;;;;;;13.23;10.43;;;;;;;-3.81;100.00;99041.91;5019100;28;20996;-59
2022/01/12 08:26:11;;;;;;;11.17;9.73;;;;;;;-3.82;100.00;99050.59;5015341;28;20486;-57
2022/01/12 08:28:39;;;;;;;11.23;10.20;;;;;;;-3.65;100.00;99055.25;5016002;28;20443;-59
2022/01/12 08:31:07;;;;;;;13.43;10.90;;;;;;;-3.64;100.00;99054.34;5017593;28;20458;-57
2022/01/12 08:33:35;;;;;;;14.57;11.90;;;;;;;-3.54;100.00;99054.91;5017798;28;20569;-58
2022/01/12 08:36:04;;;;;;;14.17;10.40;;;;;;;-2.99;100.00;99043.63;5012150;28;20454;-53
2022/01/12 08:38:32;;;;;;;12.10;10.90;;;;;;;-2.79;100.00;99045.53;5016432;28;20471;-53
2022/01/12 08:41:01;;;;;;;11.87;10.67;;;;;;;-2.91;100.00;99046.81;5013010;28;20460;-54
2022/01/12 08:43:29;;;;;;;25.83;17.27;;;;;;;-2.49;100.00;99051.38;5016871;28;20502;-54
2022/01/12 08:45:57;;;;;;;14.33;10.43;;;;;;;-2.26;100.00;99051.44;5015263;28;20871;-54
2022/01/12 08:48:25;;;;;;;32.10;22.20;;;;;;;-2.09;100.00;99040.41;5013629;28;20448;-52
2022/01/12 08:50:53;;;;;;;64.07;40.17;;;;;;;-1.91;100.00;99025.88;5015653;28;20474;-58
2022/01/12 08:53:21;;;;;;;14.23;11.60;;;;;;;-2.15;100.00;99022.47;5017954;28;20474;-57
2022/01/12 08:55:50;;;;;;;10.53;9.13;;;;;;;-2.41;100.00;99025.13;5011992;28;20463;-58
2022/01/12 08:58:19;;;;;;;11.30;9.70;;;;;;;-2.28;100.00;99038.50;5010790;28;20993;-57
2022/01/12 09:00:47;;;;;;;10.43;9.33;;;;;;;-2.71;100.00;99032.28;5013737;28;20451;-58
2022/01/12 09:03:16;;;;;;;13.03;9.50;;;;;;;-2.80;100.00;99039.47;5017723;28;20459;-58
2022/01/12 09:05:44;;;;;;;12.60;10.80;;;;;;;-3.18;100.00;99038.22;5012817;28;21244;-55
2022/01/12 09:08:12;;;;;;;13.47;10.13;;;;;;;-3.38;100.00;99035.41;5014223;28;20463;-54
2022/01/12 09:10:40;;;;;;;12.87;11.17;;;;;;;-3.46;100.00;99039.97;5011669;28;20462;-58
2022/01/12 09:13:08;;;;;;;12.53;10.80;;;;;;;-2.93;100.00;99039.06;5015053;28;20463;-54
2022/01/12 09:15:37;;;;;;;24.87;17.23;;;;;;;-2.56;100.00;99036.94;5019191;28;20461;-58
2022/01/12 09:18:05;;;;;;;13.33;10.70;;;;;;;-2.34;100.00;99038.72;5011431;28;21007;-58
2022/01/12 09:20:33;;;;;;;11.90;10.70;;;;;;;-2.21;100.00;99054.69;5016473;28;20489;-57
2022/01/12 09:23:01;;;;;;;13.53;10.77;;;;;;;-1.96;100.00;99058.97;5012126;28;20459;-56
2022/01/12 09:25:33;;;;;;;13.37;10.83;;;;;;;-2.24;100.00;99060.00;5015386;28;20486;-54
2022/01/12 09:28:02;;;;;;;11.97;10.67;;;;;;;-2.44;100.00;99053.81;5014697;28;20492;-53
2022/01/12 09:30:30;;;;;;;12.73;10.93;;;;;;;-2.17;100.00;99058.88;5010404;28;20462;-60
2022/01/12 09:33:00;;;;;;;14.30;11.10;;;;;;;-2.25;100.00;99051.38;5013996;28;20462;-59
2022/01/12 09:35:29;;;;;;;13.00;11.67;;;;;;;-2.05;100.00;99058.44;5015432;28;20471;-58
2022/01/12 09:37:57;;;;;;;11.63;9.77;;;;;;;-1.81;100.00;99052.34;5011798;28;20466;-57
2022/01/12 09:40:25;;;;;;;14.77;10.67;;;;;;;-1.78;100.00;99060.03;5014527;28;20452;-57
2022/01/12 09:42:53;;;;;;;12.33;9.97;;;;;;;-1.71;100.00;99058.00;5007790;28;20463;-55
2022/01/12 09:45:23;;;;;;;13.73;10.43;;;;;;;-1.67;100.00;99057.84;5012560;28;21476;-56
2022/01/12 09:47:51;;;;;;;12.70;10.57;;;;;;;-1.66;100.00;99050.91;5015206;28;20479;-57
2022/01/12 09:50:23;;;;;;;18.40;10.83;;;;;;;-1.66;100.00;99056.94;5013022;28;20538;-60
2022/01/12 09:52:51;;;;;;;13.27;10.10;;;;;;;-1.67;100.00;99050.03;5020906;28;20463;-54
2022/01/12 09:55:20;;;;;;;13.23;10.53;;;;;;;-1.72;100.00;99044.19;5009249;28;21219;-58
2022/01/12 09:57:49;;;;;;;13.47;11.57;;;;;;;-2.00;100.00;99028.84;5011444;28;20460;-62
2022/01/12 10:00:17;;;;;;;12.00;10.03;;;;;;;-1.55;100.00;99038.31;5016556;28;20690;-60
2022/01/12 10:02:46;;;;;;;12.67;9.90;;;;;;;-1.56;100.00;99052.22;5010483;28;20459;-58
2022/01/12 10:05:15;;;;;;;24.43;14.53;;;;;;;-1.58;100.00;99055.78;5012231;28;21008;-57
2022/01/12 10:07:44;;;;;;;11.43;9.67;;;;;;;-1.81;100.00;99054.94;5009238;28;20731;-60
2022/01/12 10:10:15;;;;;;;11.53;10.27;;;;;;;-1.48;100.00;99059.72;5012857;28;20469;-54
2022/01/12 10:12:53;;;;;;;12.33;9.37;;;;;;;-1.35;100.00;99065.25;5015196;28;20463;-60
2022/01/12 10:15:21;;;;;;;10.10;8.83;;;;;;;-1.35;100.00;99060.91;5011386;28;20478;-58
2022/01/12 10:17:49;;;;;;;13.57;10.63;;;;;;;-0.98;100.00;99071.53;5016849;28;20547;-56
2022/01/12 10:20:19;;;;;;;10.97;9.70;;;;;;;-1.02;100.00;99078.66;5015692;28;20469;-59
2022/01/12 10:23:00;;;;;;;12.03;10.67;;;;;;;-0.99;100.00;99076.81;5014533;28;20227;-58
2022/01/12 10:25:30;;;;;;;12.60;10.20;;;;;;;-0.98;100.00;99071.53;5016991;28;20486;-59
2022/01/12 10:27:58;;;;;;;12.97;9.67;;;;;;;-0.81;100.00;99072.59;5016944;28;20246;-59
2022/01/12 10:30:28;;;;;;;10.67;9.50;;;;;;;-0.68;100.00;99065.94;5014476;28;20467;-55
2022/01/12 10:33:01;;;;;;;12.33;11.03;;;;;;;-0.65;100.00;99064.97;5019260;28;20461;-59
2022/01/12 10:35:31;;;;;;;12.90;11.57;;;;;;;-0.72;100.00;99064.38;5015733;28;20221;-57
2022/01/12 10:38:11;;;;;;;13.33;10.37;;;;;;;-0.34;100.00;99061.84;5016682;28;20497;-60
2022/01/12 10:40:46;;;;;;;12.83;10.60;;;;;;;0.00;100.00;99072.53;5015182;28;20812;-58
2022/01/12 10:43:42;;;;;;;12.47;10.27;;;;;;;0.01;100.00;99075.97;5018385;28;20450;-57
2022/01/12 10:46:12;;;;;;;10.87;9.77;;;;;;;0.17;100.00;99084.75;4956749;28;20205;-58
2022/01/12 10:48:43;;;;;;;13.47;10.63;;;;;;;-0.37;100.00;99082.84;4956667;28;21153;-59
2022/01/12 10:51:11;;;;;;;12.73;10.20;;;;;;;-1.07;100.00;99092.75;4954408;28;20470;-56
2022/01/12 10:53:41;;;;;;;13.47;10.47;;;;;;;-1.68;100.00;99086.50;4954893;28;20372;-59
2022/01/12 10:56:11;;;;;;;14.50;11.80;;;;;;;-1.27;100.00;99094.41;4952797;28;20221;-53
2022/01/12 10:58:41;;;;;;;11.53;10.03;;;;;;;-1.32;100.00;99093.75;4956879;28;20466;-58
2022/01/12 11:01:10;;;;;;;14.47;11.23;;;;;;;-1.34;100.00;99093.81;4958990;28;20206;-58
2022/01/12 11:03:38;;;;;;;16.47;12.83;;;;;;;-1.60;100.00;99087.88;4956380;28;20485;-59
2022/01/12 11:06:07;;;;;;;12.83;10.63;;;;;;;-1.53;100.00;99072.91;4957536;28;20461;-59
2022/01/12 11:08:36;;;;;;;13.83;10.13;;;;;;;-1.36;100.00;99074.81;4954275;28;20233;-58
2022/01/12 11:11:07;;;;;;;11.37;9.40;;;;;;;-1.68;100.00;99076.94;4958142;28;20214;-57
2022/01/12 11:13:35;;;;;;;10.90;8.80;;;;;;;-1.87;100.00;99097.59;4954404;28;20563;-55
2022/01/12 11:16:04;;;;;;;12.20;9.13;;;;;;;-2.01;100.00;99099.88;4951138;28;20214;-53
2022/01/12 11:18:35;;;;;;;10.87;9.00;;;;;;;-2.21;100.00;99088.47;4957097;28;20298;-55
2022/01/12 11:21:07;;;;;;;11.27;10.07;;;;;;;-1.59;100.00;99091.34;4958885;28;20457;-53
2022/01/12 11:23:37;;;;;;;10.93;9.40;;;;;;;-1.02;100.00;99083.00;5016297;28;20494;-59
2022/01/12 11:26:18;;;;;;;10.03;8.53;;;;;;;-0.72;100.00;99082.59;5016362;28;20451;-56
2022/01/12 11:28:47;;;;;;;9.33;8.23;;;;;;;-0.38;100.00;99070.72;5017599;28;20489;-56
2022/01/12 11:31:18;;;;;;;12.33;9.20;;;;;;;-0.41;100.00;99068.25;5015428;28;20609;-58
2022/01/12 11:33:46;;;;;;;9.37;8.13;;;;;;;-0.32;100.00;99067.00;5019452;28;20223;-59
2022/01/12 11:36:17;;;;;;;11.43;8.70;;;;;;;0.10;100.00;99073.78;5010276;28;20632;-59
2022/01/12 11:38:47;;;;;;;11.37;8.83;;;;;;;-0.22;100.00;99067.41;5013591;28;20452;-56
2022/01/12 11:41:23;;;;;;;9.00;7.50;;;;;;;-0.69;100.00;99071.22;5014375;28;20219;-58
2022/01/12 11:43:54;;;;;;;12.73;10.27;;;;;;;-1.05;100.00;99070.09;5014215;28;20223;-55
2022/01/12 11:46:24;;;;;;;10.30;9.10;;;;;;;-0.88;100.00;99061.59;5017088;28;20219;-54
2022/01/12 11:48:53;;;;;;;10.13;8.53;;;;;;;-0.53;100.00;99072.25;5010982;28;20294;-56
2022/01/12 11:51:33;;;;;;;9.23;8.30;;;;;;;-0.25;100.00;99059.75;5020049;28;20204;-56
2022/01/12 11:54:08;;;;;;;8.63;7.83;;;;;;;-0.25;100.00;99044.13;5014410;28;20323;-58
2022/01/12 11:56:38;;;;;;;9.07;7.83;;;;;;;-0.35;100.00;99041.94;5018099;28;20554;-55
2022/01/12 11:59:11;;;;;;;8.97;8.07;;;;;;;-0.44;100.00;99043.19;5013151;28;20212;-54
2022/01/12 12:01:48;;;;;;;10.40;9.30;;;;;;;-0.48;100.00;99043.41;5012830;28;21235;-58
2022/01/12 12:04:25;;;;;;;11.57;8.27;;;;;;;-0.02;100.00;99032.63;5014780;28;20255;-51
2022/01/12 12:07:07;;;;;;;10.20;8.50;;;;;;;0.13;100.00;99031.06;5012219;28;20839;-54
2022/01/12 12:09:41;;;;;;;9.77;8.87;;;;;;;0.21;100.00;99031.59;5015297;28;20785;-58
2022/01/12 12:12:15;;;;;;;12.57;9.27;;;;;;;0.17;100.00;99030.00;5013916;28;20240;-59
2022/01/12 12:14:44;;;;;;;8.67;7.83;;;;;;;-0.06;100.00;99025.88;5012064;28;20230;-56
2022/01/12 12:17:12;;;;;;;10.03;8.20;;;;;;;-0.45;100.00;99025.88;5015126;28;20287;-54
2022/01/12 12:19:40;;;;;;;9.60;8.60;;;;;;;-0.78;100.00;99016.03;5014375;28;20284;-52
2022/01/12 12:22:10;;;;;;;9.70;8.03;;;;;;;-1.14;100.00;99021.06;5015258;28;20253;-56
2022/01/12 12:24:38;;;;;;;11.17;8.27;;;;;;;-1.10;100.00;99022.63;5011046;28;20239;-57